Date,TemperatureHighF,TemperatureAvgF,TemperatureLowF,DewpointHighF,DewpointAvgF,DewpointLowF,HumidityHigh,HumidityAvg,HumidityLow,PressureMaxIn,PressureMinIn,WindSpeedMaxMPH,WindSpeedAvgMPH,GustSpeedMaxMPH,PrecipitationSumIn
2013-3-1,68,64,60,60,55,51,81,73,63,30.04,29.93,10,4,15,0.00
2013-3-2,64,59,54,50,47,44,79,65,58,30.07,30.01,16,5,25,0.04
2013-3-3,59,55,46,50,48,43,91,77,62,30.17,30.00,21,7,26,0.12
2013-3-4,66,55,42,50,45,37,84,70,47,30.24,30.14,12,4,20,0.00
2013-3-5,72,61,46,61,54,43,91,77,62,30.19,30.11,13,3,18,0.00
2013-3-6,71,65,59,65,56,48,89,74,57,30.15,30.04,28,9,31,0.00
2013-3-7,64,57,48,51,45,37,81,65,46,30.23,30.12,16,6,21,0.00
2013-3-8,75,62,48,57,51,44,89,71,41,30.23,30.13,14,5,19,0.00
2013-3-9,82,66,51,59,52,48,91,65,34,30.21,30.11,11,4,15,0.00
2013-3-10,85,69,57,62,58,52,89,70,43,30.17,30.04,15,6,22,0.00
2013-3-11,78,69,59,65,61,56,92,76,54,30.11,29.94,21,8,26,0.00
2013-3-12,74,69,63,70,65,58,92,89,83,30.04,29.91,19,8,31,0.00
2013-3-13,77,65,56,58,53,47,88,68,35,30.17,30.03,17,6,22,0.00
2013-3-14,76,62,55,53,46,38,79,59,26,30.25,30.15,20,7,26,0.00
2013-3-15,75,55,49,47,45,39,83,71,27,30.30,30.21,16,6,19,0.00
2013-3-20,78,72,66,68,65,63,92,80,71,30.00,29.84,14,6,24,0.12
2013-3-21,76,67,60,64,57,51,93,72,47,29.98,29.86,13,6,23,0.00
2013-3-22,80,68,54,72,61,46,92,79,73,29.99,29.90,21,7,26,0.00
2013-3-23,83,77,73,75,72,69,95,83,68,29.97,29.84,25,9,28,0.00
2013-3-24,80,77,72,76,73,69,93,88,82,29.88,29.72,27,12,40,0.00
2013-3-25,75,70,62,73,62,46,94,76,55,30.06,29.77,21,8,31,0.00
2013-3-26,64,59,53,50,45,41,71,60,47,30.26,30.05,25,9,32,0.00
2013-3-27,63,56,47,49,42,37,73,62,43,30.32,30.21,22,8,26,0.00
2013-3-28,75,59,46,52,45,40,82,61,30,30.31,30.19,14,6,19,0.00
2013-3-29,84,64,50,57,50,44,84,63,29,30.32,30.20,13,4,17,0.00
2013-3-30,79,66,55,60,55,51,87,70,48,30.27,30.15,13,4,19,0.00
2013-3-31,78,70,59,65,61,54,88,75,58,30.21,30.04,18,6,26,0.00